Time;durP1;ratioP1;P1;durP2;ratioP2;P2;SDS_P1;SDS_P2;PMS_P1;PMS_P2;Temp;Humidity;BMP_temperature;BMP_pressure;BME280_temperature;BME280_humidity;BME280_pressure;Samples;Min_cycle;Max_cycle;Signal;HPM_P1;HPM_P2
2022/10/30 00:00:26;;;;;;;5.63;1.80;;;;;;;14.71;100.00;100497.72;4816405;29;20034;-77
2022/10/30 00:02:51;;;;;;;8.02;1.95;;;;;;;14.71;100.00;100501.31;4816511;29;20491;-78
2022/10/30 00:05:18;;;;;;;6.75;1.50;;;;;;;14.70;100.00;100504.44;4816283;29;20501;-77
2022/10/30 00:07:44;;;;;;;6.13;1.70;;;;;;;14.70;100.00;100504.44;4817064;29;20598;-78
2022/10/30 00:10:10;;;;;;;3.92;1.75;;;;;;;14.70;100.00;100496.84;4830506;29;20041;-77
2022/10/30 00:12:35;;;;;;;7.22;2.10;;;;;;;14.70;100.00;100494.06;4816490;29;20034;-77
2022/10/30 00:15:01;;;;;;;6.93;1.92;;;;;;;14.69;100.00;100483.22;4822336;29;20046;-77
2022/10/30 00:17:26;;;;;;;5.97;1.83;;;;;;;14.69;100.00;100491.59;4816272;29;20034;-78
2022/10/30 00:19:52;;;;;;;5.43;1.60;;;;;;;14.69;100.00;100488.81;4831154;29;20067;-77
2022/10/30 00:22:17;;;;;;;8.75;1.75;;;;;;;14.68;100.00;100484.34;4831004;29;20030;-77
2022/10/30 00:24:43;;;;;;;6.60;1.60;;;;;;;14.66;100.00;100484.69;4801003;29;20059;-77
2022/10/30 00:27:08;;;;;;;5.60;1.20;;;;;;;14.66;100.00;100486.66;4847585;29;20435;-78
2022/10/30 00:29:33;;;;;;;9.45;1.85;;;;;;;14.64;100.00;100481.38;4815889;29;20185;-78
2022/10/30 00:31:59;;;;;;;4.70;1.48;;;;;;;14.63;100.00;100490.09;4800680;29;20041;-77
2022/10/30 00:34:24;;;;;;;5.80;1.70;;;;;;;14.63;100.00;100493.72;4815792;29;20670;-77
2022/10/30 00:36:50;;;;;;;12.88;1.90;;;;;;;14.62;100.00;100494.03;4830757;29;20030;-77
2022/10/30 00:39:15;;;;;;;5.40;1.75;;;;;;;14.61;100.00;100498.81;4815891;29;20034;-77
2022/10/30 00:41:41;;;;;;;6.35;1.60;;;;;;;14.62;100.00;100502.41;4815815;29;20030;-78
2022/10/30 00:44:32;;;;;;;5.18;1.50;;;;;;;14.61;100.00;100506.38;4830700;29;20030;-77
2022/10/30 00:46:58;;;;;;;7.57;1.65;;;;;;;14.60;100.00;100511.13;4847079;29;20399;-77
2022/10/30 00:49:23;;;;;;;4.72;1.45;;;;;;;14.60;100.00;100515.88;4790287;29;20429;-77
2022/10/30 00:51:51;;;;;;;8.77;1.95;;;;;;;14.60;100.00;100510.28;4815910;29;20034;-77
2022/10/30 00:54:16;;;;;;;10.02;1.70;;;;;;;14.57;100.00;100508.13;4809776;29;20069;-77
2022/10/30 00:56:42;;;;;;;9.35;1.92;;;;;;;14.58;100.00;100512.59;4797450;29;20030;-78
2022/10/30 00:59:09;;;;;;;6.38;1.67;;;;;;;14.57;100.00;100510.94;4841156;29;20026;-78
2022/10/30 01:01:40;;;;;;;4.20;1.70;;;;;;;14.58;100.00;100507.00;4815652;29;20022;-77
2022/10/30 01:04:06;;;;;;;8.80;1.67;;;;;;;14.56;100.00;100500.91;4800648;29;20461;-78
2022/10/30 01:06:32;;;;;;;12.65;2.40;;;;;;;14.54;100.00;100498.41;4817231;29;20057;-78
2022/10/30 01:08:58;;;;;;;8.52;1.90;;;;;;;14.52;100.00;100495.97;4812057;29;20069;-77
2022/10/30 01:11:23;;;;;;;9.18;1.92;;;;;;;14.53;100.00;100494.00;4814361;29;20100;-77
2022/10/30 01:13:49;;;;;;;12.18;2.38;;;;;;;14.53;100.00;100494.81;4830195;29;20034;-78
2022/10/30 01:16:32;;;;;;;8.63;1.92;;;;;;;14.55;100.00;100493.69;4832673;29;20065;-79
2022/10/30 01:19:02;;;;;;;7.85;2.00;;;;;;;14.54;100.00;100490.03;4802336;29;20410;-78
2022/10/30 01:21:40;;;;;;;12.57;2.63;;;;;;;14.53;100.00;100494.00;4832740;29;20030;-77
2022/10/30 01:24:45;;;;;;;11.40;2.30;;;;;;;14.53;100.00;100485.59;4848074;29;20041;-78
2022/10/30 01:27:10;;;;;;;11.40;2.35;;;;;;;14.50;100.00;100492.63;4805559;29;20050;-78
2022/10/30 01:29:40;;;;;;;9.27;1.63;;;;;;;14.52;100.00;100489.56;4830436;29;20094;-77
2022/10/30 01:32:32;;;;;;;11.18;1.90;;;;;;;14.52;100.00;100487.59;4830090;29;20038;-77
2022/10/30 01:35:19;;;;;;;7.20;1.88;;;;;;;14.52;100.00;100486.75;4809847;29;20046;-77
2022/10/30 01:37:49;;;;;;;10.13;2.60;;;;;;;14.52;100.00;100479.19;4816995;29;20042;-77
2022/10/30 01:40:16;;;;;;;10.48;2.20;;;;;;;14.50;100.00;100470.28;4815443;29;20054;-77
2022/10/30 01:42:46;;;;;;;6.97;1.80;;;;;;;14.52;100.00;100484.78;4815018;29;20030;-77
2022/10/30 01:45:25;;;;;;;6.00;1.83;;;;;;;14.52;100.00;100481.19;4799687;29;20466;-78
2022/10/30 01:48:06;;;;;;;8.02;1.65;;;;;;;14.53;100.00;100478.03;4815792;29;20061;-77
2022/10/30 01:50:56;;;;;;;7.00;1.80;;;;;;;14.53;100.00;100469.66;4819881;29;20042;-77
2022/10/30 01:53:52;;;;;;;8.82;2.10;;;;;;;14.53;100.00;100469.66;4790100;29;20038;-78
2022/10/30 01:56:44;;;;;;;5.15;1.80;;;;;;;14.52;100.00;100467.19;4803272;29;20030;-78
2022/10/30 01:59:19;;;;;;;4.75;1.90;;;;;;;14.53;100.00;100468.84;4810404;29;20045;-78
2022/10/30 02:01:45;;;;;;;7.97;2.10;;;;;;;14.52;100.00;100462.44;4814973;29;20068;-77
2022/10/30 02:04:11;;;;;;;6.40;1.67;;;;;;;14.53;100.00;100452.06;4805931;29;20038;-77
2022/10/30 02:06:36;;;;;;;5.38;1.73;;;;;;;14.52;100.00;100450.44;4799506;29;20034;-77
2022/10/30 02:09:03;;;;;;;6.15;1.48;;;;;;;14.53;100.00;100454.88;4785930;29;20075;-77
2022/10/30 02:11:28;;;;;;;10.02;2.03;;;;;;;14.50;100.00;100458.28;4798184;29;20074;-78
2022/10/30 02:13:54;;;;;;;6.05;2.00;;;;;;;14.50;100.00;100470.28;4811687;29;20038;-77
2022/10/30 02:16:20;;;;;;;8.70;1.63;;;;;;;14.50;100.00;100470.28;4786810;29;20119;-78
2022/10/30 02:18:46;;;;;;;7.68;1.80;;;;;;;14.47;100.00;100470.91;4839824;29;20033;-78
2022/10/30 02:21:11;;;;;;;7.35;1.75;;;;;;;14.46;100.00;100471.25;4814157;29;20033;-77
2022/10/30 02:23:37;;;;;;;6.18;1.75;;;;;;;14.46;100.00;100452.50;4799280;29;20037;-78
2022/10/30 02:26:03;;;;;;;6.70;1.70;;;;;;;14.47;100.00;100447.75;4784435;29;20091;-78
2022/10/30 02:28:28;;;;;;;7.63;1.90;;;;;;;14.46;100.00;100446.09;4798817;29;20034;-78
2022/10/30 02:30:54;;;;;;;5.38;1.63;;;;;;;14.46;100.00;100455.31;4829511;29;20038;-78
2022/10/30 02:33:19;;;;;;;8.10;1.80;;;;;;;14.44;100.00;100465.97;4798953;29;20703;-77
2022/10/30 02:35:45;;;;;;;6.72;2.00;;;;;;;14.45;100.00;100467.63;4798989;29;20038;-78
2022/10/30 02:38:10;;;;;;;7.65;1.65;;;;;;;14.46;100.00;100465.66;4814125;29;20037;-78
2022/10/30 02:40:35;;;;;;;8.35;1.92;;;;;;;14.45;100.00;100462.03;4799141;29;20045;-78
2022/10/30 02:43:01;;;;;;;9.40;1.60;;;;;;;14.45;100.00;100467.63;4813641;29;20030;-78
2022/10/30 02:45:26;;;;;;;9.80;2.22;;;;;;;14.44;100.00;100465.97;4829199;29;20042;-77
2022/10/30 02:47:52;;;;;;;6.85;1.98;;;;;;;14.45;100.00;100461.22;4828893;29;20083;-77
2022/10/30 02:50:17;;;;;;;9.48;2.22;;;;;;;14.44;100.00;100459.56;4805476;29;20034;-77
2022/10/30 02:52:43;;;;;;;9.55;1.73;;;;;;;14.42;100.00;100448.69;4824590;29;20026;-78
2022/10/30 02:55:08;;;;;;;9.80;2.08;;;;;;;14.42;100.00;100445.91;4826246;29;20038;-78
2022/10/30 02:57:34;;;;;;;7.55;1.50;;;;;;;14.43;100.00;100441.13;4812293;29;20045;-78
2022/10/30 03:00:00;;;;;;;8.68;1.45;;;;;;;14.44;100.00;100438.03;4813728;29;20070;-77
2022/10/30 03:02:25;;;;;;;7.35;1.77;;;;;;;14.44;100.00;100437.22;4828977;29;20091;-78
2022/10/30 03:04:51;;;;;;;6.25;1.67;;;;;;;14.44;100.00;100445.59;4781734;29;20046;-78
2022/10/30 03:07:16;;;;;;;6.30;1.60;;;;;;;14.42;100.00;100443.13;4782222;29;20026;-78
2022/10/30 03:09:42;;;;;;;8.00;1.75;;;;;;;14.42;100.00;100439.50;4844949;29;20467;-78
2022/10/30 03:12:07;;;;;;;4.70;1.50;;;;;;;14.42;100.00;100434.72;4836733;29;20035;-78
2022/10/30 03:14:33;;;;;;;6.20;1.50;;;;;;;14.42;100.00;100443.13;4813413;29;20042;-78
2022/10/30 03:16:58;;;;;;;5.10;1.70;;;;;;;14.41;100.00;100447.06;4798711;29;20467;-78
2022/10/30 03:19:23;;;;;;;6.65;1.67;;;;;;;14.42;100.00;100457.09;4813343;29;20046;-78
2022/10/30 03:21:49;;;;;;;10.82;1.70;;;;;;;14.42;100.00;100456.25;4813319;29;20041;-77
2022/10/30 03:24:14;;;;;;;7.60;1.80;;;;;;;14.41;100.00;100460.22;4798451;29;20029;-78
2022/10/30 03:26:40;;;;;;;4.88;1.88;;;;;;;14.42;100.00;100461.84;4783487;29;20045;-78
2022/10/30 03:29:05;;;;;;;10.18;1.95;;;;;;;14.41;100.00;100466.63;4797589;29;20685;-78
2022/10/30 03:31:31;;;;;;;10.90;1.95;;;;;;;14.40;100.00;100470.56;4798157;29;20030;-78
2022/10/30 03:33:57;;;;;;;6.22;1.45;;;;;;;14.40;100.00;100476.16;4813383;29;20030;-78
2022/10/30 03:36:23;;;;;;;4.50;1.58;;;;;;;14.41;100.00;100488.16;4798282;29;20070;-78
2022/10/30 03:38:49;;;;;;;6.38;1.50;;;;;;;14.41;100.00;100485.34;4783516;29;20034;-78
2022/10/30 03:41:14;;;;;;;6.65;1.65;;;;;;;14.41;100.00;100488.97;4798008;29;20411;-78
2022/10/30 03:43:39;;;;;;;4.85;1.48;;;;;;;14.41;100.00;100493.75;4812905;29;20030;-77
2022/10/30 03:46:05;;;;;;;7.40;1.83;;;;;;;14.41;100.00;100488.16;4813113;29;20038;-78
2022/10/30 03:48:30;;;;;;;6.60;1.52;;;;;;;14.39;100.00;100494.06;4785053;29;20047;-78
2022/10/30 03:50:57;;;;;;;8.13;1.80;;;;;;;14.39;100.00;100484.84;4815188;29;20035;-78
2022/10/30 03:53:24;;;;;;;6.30;1.80;;;;;;;14.38;100.00;100495.22;4780202;29;20086;-78
2022/10/30 03:55:50;;;;;;;7.25;1.55;;;;;;;14.39;100.00;100490.44;4810160;29;20034;-78
2022/10/30 03:58:16;;;;;;;10.75;2.10;;;;;;;14.39;100.00;100501.63;4809698;29;20507;-78
2022/10/30 04:00:41;;;;;;;9.02;1.77;;;;;;;14.37;100.00;100493.53;4794496;29;20035;-78
2022/10/30 04:03:07;;;;;;;9.75;1.55;;;;;;;14.36;100.00;100491.09;4794836;29;20029;-78
2022/10/30 04:05:33;;;;;;;4.43;1.35;;;;;;;14.35;100.00;100473.50;4794681;29;20070;-78
2022/10/30 04:08:00;;;;;;;8.75;1.83;;;;;;;14.35;100.00;100467.91;4794817;29;20033;-78
2022/10/30 04:10:25;;;;;;;6.93;1.50;;;;;;;14.36;100.00;100469.56;4780023;29;20088;-78
2022/10/30 04:12:51;;;;;;;5.05;1.40;;;;;;;14.33;100.00;100478.56;4778904;29;20441;-77
2022/10/30 04:15:17;;;;;;;7.40;1.50;;;;;;;14.32;100.00;100476.94;4809786;29;20041;-78
2022/10/30 04:17:53;;;;;;;5.28;1.40;;;;;;;14.33;100.00;100469.38;4796239;29;20220;-78
2022/10/30 04:20:18;;;;;;;10.57;1.58;;;;;;;14.34;100.00;100469.03;4794570;29;20201;-78
2022/10/30 04:22:44;;;;;;;6.78;1.15;;;;;;;14.34;100.00;100474.63;4794649;29;20038;-78
2022/10/30 04:25:09;;;;;;;6.45;1.33;;;;;;;14.31;100.00;100497.63;4794705;29;20046;-78
2022/10/30 04:27:42;;;;;;;8.43;1.50;;;;;;;14.30;100.00;100485.63;4794855;29;20039;-78
2022/10/30 04:30:09;;;;;;;9.70;1.65;;;;;;;14.30;100.00;100495.97;4780014;29;20041;-78
2022/10/30 04:32:34;;;;;;;8.32;1.35;;;;;;;14.24;100.00;100500.06;4794723;29;20045;-78
2022/10/30 04:35:00;;;;;;;10.18;1.55;;;;;;;14.25;100.00;100502.50;4825810;29;20038;-78
2022/10/30 04:37:25;;;;;;;7.13;1.52;;;;;;;14.22;100.00;100480.00;4809614;29;20057;-78
2022/10/30 04:39:51;;;;;;;9.68;1.40;;;;;;;14.21;100.00;100475.56;4809590;29;20041;-78
2022/10/30 04:42:16;;;;;;;7.00;1.20;;;;;;;14.17;100.00;100480.13;4797838;29;20084;-78
2022/10/30 04:44:41;;;;;;;8.65;1.60;;;;;;;14.16;100.00;100475.69;4797756;29;20073;-77
2022/10/30 04:47:07;;;;;;;7.35;1.10;;;;;;;14.14;100.00;100505.88;4800485;29;20058;-78
2022/10/30 04:49:32;;;;;;;5.10;1.30;;;;;;;14.13;100.00;100504.25;4812927;29;20183;-77
2022/10/30 04:51:58;;;;;;;4.18;0.95;;;;;;;14.11;100.00;100500.94;4821318;29;20041;-77
2022/10/30 04:54:23;;;;;;;6.28;1.00;;;;;;;14.12;100.00;100511.78;4785944;29;20030;-77
2022/10/30 04:56:49;;;;;;;4.75;1.02;;;;;;;14.12;100.00;100517.38;4803578;29;20041;-78
2022/10/30 04:59:14;;;;;;;4.90;0.90;;;;;;;14.04;100.00;100518.97;4811957;29;20037;-78
2022/10/30 05:01:40;;;;;;;9.77;1.20;;;;;;;14.02;100.00;100507.28;4830826;29;20033;-77
2022/10/30 05:04:05;;;;;;;3.92;0.73;;;;;;;14.04;100.00;100512.53;4821236;29;20034;-78
2022/10/30 05:06:30;;;;;;;5.50;0.90;;;;;;;14.00;100.00;100511.53;4800699;29;20038;-78
2022/10/30 05:08:56;;;;;;;3.13;0.70;;;;;;;13.99;100.00;100510.72;4800447;29;20090;-78
2022/10/30 05:11:22;;;;;;;4.05;0.75;;;;;;;13.95;100.00;100504.09;4811582;29;20098;-78
2022/10/30 05:13:47;;;;;;;3.45;0.80;;;;;;;13.90;100.00;100498.66;4826449;29;20054;-78
2022/10/30 05:16:13;;;;;;;3.70;0.70;;;;;;;13.86;100.00;100486.47;4815802;29;20065;-78
2022/10/30 05:18:38;;;;;;;2.67;0.60;;;;;;;13.86;100.00;100495.66;4800369;29;20037;-77
2022/10/30 05:21:04;;;;;;;4.93;0.52;;;;;;;13.82;100.00;100502.22;4800355;29;20041;-77
2022/10/30 05:23:29;;;;;;;3.50;0.70;;;;;;;13.81;100.00;100514.50;4815382;29;20040;-77
2022/10/30 05:25:55;;;;;;;6.35;0.68;;;;;;;13.80;100.00;100510.91;4815397;29;20483;-77
2022/10/30 05:28:20;;;;;;;3.38;0.77;;;;;;;13.77;100.00;100492.00;4815089;29;20141;-77
2022/10/30 05:30:46;;;;;;;4.85;0.70;;;;;;;13.77;100.00;100488.38;4830349;29;20041;-77
2022/10/30 05:33:11;;;;;;;2.20;0.50;;;;;;;13.76;100.00;100492.28;4814922;29;20512;-78
2022/10/30 05:35:37;;;;;;;3.50;0.73;;;;;;;13.74;100.00;100495.41;4815185;29;20044;-78
2022/10/30 05:38:04;;;;;;;3.30;0.70;;;;;;;13.69;100.00;100500.28;4800175;29;20033;-77
2022/10/30 05:40:29;;;;;;;2.60;0.40;;;;;;;13.68;100.00;100498.63;4800091;29;20038;-77
2022/10/30 05:42:55;;;;;;;3.35;0.75;;;;;;;13.66;100.00;100498.13;4814613;29;20033;-77
2022/10/30 05:45:20;;;;;;;3.33;0.60;;;;;;;13.66;100.00;100493.38;4814986;29;20099;-78
2022/10/30 05:47:59;;;;;;;3.47;0.63;;;;;;;13.65;100.00;100483.38;4814794;29;20465;-77
2022/10/30 05:50:25;;;;;;;4.63;0.60;;;;;;;13.62;100.00;100468.06;4820684;29;20048;-77
2022/10/30 05:53:01;;;;;;;4.93;0.65;;;;;;;13.59;100.00;100468.69;4823023;29;20038;-77
2022/10/30 05:55:27;;;;;;;3.67;0.60;;;;;;;13.60;100.00;100480.69;4769430;29;20039;-77
2022/10/30 05:57:56;;;;;;;4.78;0.70;;;;;;;13.56;100.00;100502.78;4810998;29;20037;-78
2022/10/30 06:00:21;;;;;;;2.83;0.55;;;;;;;13.49;100.00;100502.41;4843810;29;20044;-77
2022/10/30 06:02:47;;;;;;;3.90;0.60;;;;;;;13.52;100.00;100489.81;4811815;29;20022;-77
2022/10/30 06:05:12;;;;;;;3.33;0.70;;;;;;;13.49;100.00;100482.88;4796361;29;20064;-77
2022/10/30 06:07:38;;;;;;;4.47;0.70;;;;;;;13.48;100.00;100472.84;4796602;29;20038;-78
2022/10/30 06:10:04;;;;;;;3.65;0.80;;;;;;;13.46;100.00;100480.72;4838744;29;20553;-78
2022/10/30 06:12:39;;;;;;;2.67;0.50;;;;;;;13.48;100.00;100478.44;4789405;29;20034;-77
2022/10/30 06:15:05;;;;;;;4.43;0.73;;;;;;;13.42;100.00;100479.69;4793092;29;20049;-78
2022/10/30 06:17:31;;;;;;;2.95;0.63;;;;;;;13.43;100.00;100478.56;4814381;29;20034;-77
2022/10/30 06:19:56;;;;;;;2.47;0.70;;;;;;;13.44;100.00;100494.16;4814207;29;20033;-77
2022/10/30 06:22:22;;;;;;;3.15;0.70;;;;;;;13.42;100.00;100496.44;4829496;29;20041;-77
2022/10/30 06:24:47;;;;;;;4.35;0.82;;;;;;;13.40;100.00;100493.16;4829481;29;20041;-77
2022/10/30 06:27:12;;;;;;;4.18;0.50;;;;;;;13.38;100.00;100479.50;4798807;29;20049;-77
2022/10/30 06:29:38;;;;;;;2.45;0.55;;;;;;;13.34;100.00;100491.59;4814074;29;20433;-78
2022/10/30 06:32:04;;;;;;;2.50;0.60;;;;;;;13.37;100.00;100502.13;4814101;29;20057;-78
2022/10/30 06:34:29;;;;;;;3.15;0.80;;;;;;;13.37;100.00;100504.91;4783847;29;20033;-77
2022/10/30 06:36:55;;;;;;;2.80;0.60;;;;;;;13.34;100.00;100483.22;4814176;29;20098;-78
2022/10/30 06:39:20;;;;;;;3.25;0.50;;;;;;;13.33;100.00;100487.16;4829411;29;20041;-77
2022/10/30 06:41:46;;;;;;;2.72;0.63;;;;;;;13.33;100.00;100503.91;4814300;29;20067;-77
2022/10/30 06:44:11;;;;;;;2.08;0.90;;;;;;;13.33;100.00;100503.91;4828957;29;20049;-78
2022/10/30 06:46:36;;;;;;;3.80;0.82;;;;;;;13.32;100.00;100494.72;4798738;29;20542;-77
2022/10/30 06:49:02;;;;;;;1.58;0.60;;;;;;;13.31;100.00;100492.22;4825629;29;20057;-78
2022/10/30 06:51:27;;;;;;;4.10;0.70;;;;;;;13.28;100.00;100513.19;4801429;29;20072;-78
2022/10/30 06:53:53;;;;;;;2.47;0.40;;;;;;;13.29;100.00;100525.16;4814026;29;20121;-77
2022/10/30 06:56:18;;;;;;;3.05;0.60;;;;;;;13.30;100.00;100533.22;4821894;29;20038;-77
2022/10/30 06:58:44;;;;;;;1.23;0.40;;;;;;;13.27;100.00;100533.84;4806045;29;20445;-78
2022/10/30 07:01:10;;;;;;;3.25;0.57;;;;;;;13.27;100.00;100522.72;4843999;29;20037;-77
2022/10/30 07:03:35;;;;;;;2.72;0.68;;;;;;;13.25;100.00;100524.13;4790911;29;20034;-77
2022/10/30 07:06:01;;;;;;;5.07;0.63;;;;;;;13.22;100.00;100531.16;4827293;29;20066;-77
2022/10/30 07:08:26;;;;;;;3.38;0.63;;;;;;;13.22;100.00;100545.09;4813831;29;20037;-77
2022/10/30 07:10:52;;;;;;;2.67;0.63;;;;;;;13.18;100.00;100547.69;4828693;29;20455;-78
2022/10/30 07:13:17;;;;;;;3.83;0.70;;;;;;;13.22;100.00;100563.78;4805234;29;20042;-77
2022/10/30 07:15:43;;;;;;;4.25;0.50;;;;;;;13.19;100.00;100570.81;4813672;29;20041;-78
2022/10/30 07:18:08;;;;;;;2.10;0.52;;;;;;;13.18;100.00;100575.56;4799161;29;20510;-78
2022/10/30 07:20:34;;;;;;;4.03;0.80;;;;;;;13.19;100.00;100565.22;4796738;29;20041;-78
2022/10/30 07:23:00;;;;;;;1.13;0.40;;;;;;;13.16;100.00;100560.28;4808722;29;20022;-77
2022/10/30 07:25:26;;;;;;;1.75;0.50;;;;;;;13.17;100.00;100551.59;4811930;29;20069;-77
2022/10/30 07:27:52;;;;;;;1.63;0.35;;;;;;;13.17;100.00;100543.22;4813084;29;20034;-77
2022/10/30 07:30:21;;;;;;;3.80;0.93;;;;;;;13.18;100.00;100542.09;4813303;29;20108;-78
2022/10/30 07:33:00;;;;;;;1.77;0.60;;;;;;;13.17;100.00;100540.44;4828545;29;20098;-78
2022/10/30 07:35:26;;;;;;;2.08;0.40;;;;;;;13.17;100.00;100546.00;4813323;29;20523;-77
2022/10/30 07:37:51;;;;;;;1.98;0.40;;;;;;;13.17;100.00;100553.56;4798120;29;20042;-77
2022/10/30 07:40:17;;;;;;;2.83;0.55;;;;;;;13.16;100.00;100571.44;4813254;29;20524;-77
2022/10/30 07:42:42;;;;;;;1.70;0.38;;;;;;;13.13;100.00;100556.16;4797761;29;20030;-77
2022/10/30 07:45:08;;;;;;;2.25;0.50;;;;;;;13.14;100.00;100562.53;4826253;29;20506;-77
2022/10/30 07:47:41;;;;;;;2.65;0.70;;;;;;;13.15;100.00;100573.41;4771457;29;20107;-77
2022/10/30 07:50:07;;;;;;;4.82;0.60;;;;;;;13.13;100.00;100578.44;4800863;29;20038;-77
2022/10/30 07:52:32;;;;;;;1.10;0.30;;;;;;;13.12;100.00;100568.44;4795045;29;20042;-78
2022/10/30 07:54:58;;;;;;;2.90;0.55;;;;;;;13.11;100.00;100575.13;4794806;29;20038;-77
2022/10/30 07:57:23;;;;;;;1.58;0.40;;;;;;;13.11;100.00;100566.78;4794883;29;20037;-77
2022/10/30 07:59:49;;;;;;;2.95;0.50;;;;;;;13.12;100.00;100567.59;4794702;29;20031;-78
2022/10/30 08:02:14;;;;;;;1.95;0.38;;;;;;;13.14;100.00;100563.38;4809871;29;20035;-77
2022/10/30 08:04:40;;;;;;;3.25;0.50;;;;;;;13.10;100.00;100565.13;4826169;29;20038;-77
2022/10/30 08:07:05;;;;;;;2.42;0.40;;;;;;;13.11;100.00;100571.53;4780130;29;20038;-77
2022/10/30 08:09:30;;;;;;;3.70;0.45;;;;;;;13.10;100.00;100592.19;4806531;29;20027;-78
2022/10/30 08:11:56;;;;;;;2.63;0.40;;;;;;;13.10;100.00;100601.38;4818766;29;20042;-77
2022/10/30 08:14:21;;;;;;;2.85;0.47;;;;;;;13.12;100.00;100595.47;4794561;29;20539;-77
2022/10/30 08:16:47;;;;;;;2.35;0.32;;;;;;;13.12;100.00;100598.28;4797430;29;20042;-77
2022/10/30 08:19:12;;;;;;;2.33;0.30;;;;;;;13.13;100.00;100592.41;4813169;29;20041;-78
2022/10/30 08:21:38;;;;;;;2.30;0.47;;;;;;;13.15;100.00;100592.91;4783475;29;20042;-77
2022/10/30 08:24:03;;;;;;;2.85;0.40;;;;;;;13.17;100.00;100596.19;4783472;29;20430;-77
2022/10/30 08:26:29;;;;;;;1.75;0.40;;;;;;;13.17;100.00;100589.81;4813318;29;20045;-78
2022/10/30 08:28:54;;;;;;;3.72;0.47;;;;;;;13.17;100.00;100585.06;4813031;29;20038;-77
2022/10/30 08:31:20;;;;;;;4.88;0.63;;;;;;;13.18;100.00;100581.16;4783142;29;20045;-77
2022/10/30 08:33:45;;;;;;;1.92;0.50;;;;;;;13.20;100.00;100605.91;4829147;29;20045;-77
2022/10/30 08:36:11;;;;;;;2.17;0.57;;;;;;;13.21;100.00;100615.13;4812988;29;20035;-77
2022/10/30 08:38:36;;;;;;;3.65;0.50;;;;;;;13.21;100.00;100609.56;4812887;29;20487;-77
2022/10/30 08:41:02;;;;;;;1.95;0.50;;;;;;;13.23;100.00;100598.91;4813129;29;20045;-77
2022/10/30 08:43:27;;;;;;;1.67;0.40;;;;;;;13.24;100.00;100606.97;4797171;29;20049;-78
2022/10/30 08:45:53;;;;;;;4.32;0.73;;;;;;;13.24;100.00;100612.53;4812961;29;20111;-78
2022/10/30 08:48:18;;;;;;;2.92;0.70;;;;;;;13.26;100.00;100603.88;4805942;29;20062;-77
2022/10/30 08:50:43;;;;;;;3.22;0.50;;;;;;;13.27;100.00;100606.38;4804420;29;20034;-77
2022/10/30 08:53:10;;;;;;;1.95;0.50;;;;;;;13.29;100.00;100609.69;4791965;29;20034;-78
2022/10/30 08:55:36;;;;;;;1.35;0.40;;;;;;;13.30;100.00;100605.75;4797936;29;20109;-78
2022/10/30 08:58:01;;;;;;;1.60;0.40;;;;;;;13.33;100.00;100593.97;4827040;29;20034;-78
2022/10/30 09:00:27;;;;;;;2.50;0.40;;;;;;;13.33;100.00;100584.78;4797655;29;20042;-77
2022/10/30 09:02:52;;;;;;;2.35;0.60;;;;;;;13.37;100.00;100591.38;4827430;29;20038;-78
2022/10/30 09:05:18;;;;;;;1.70;0.47;;;;;;;13.38;100.00;100601.41;4797362;29;20034;-77
2022/10/30 09:07:43;;;;;;;2.25;0.50;;;;;;;13.40;100.00;100602.75;4811184;29;20034;-77
2022/10/30 09:10:09;;;;;;;2.70;0.70;;;;;;;13.43;100.00;100590.16;4812338;29;20038;-77
2022/10/30 09:12:34;;;;;;;3.90;0.60;;;;;;;13.45;100.00;100584.25;4803615;29;20412;-77
2022/10/30 09:15:00;;;;;;;1.15;0.47;;;;;;;13.47;100.00;100587.56;4812274;29;20055;-78
2022/10/30 09:17:25;;;;;;;3.17;0.50;;;;;;;13.50;100.00;100589.72;4812231;29;20442;-78
2022/10/30 09:19:51;;;;;;;2.70;0.60;;;;;;;13.52;100.00;100607.81;4828298;29;20038;-78
2022/10/30 09:22:16;;;;;;;2.28;0.70;;;;;;;13.53;100.00;100606.66;4827059;29;20391;-78
2022/10/30 09:24:42;;;;;;;2.95;0.50;;;;;;;13.57;100.00;100609.69;4812030;29;20038;-77
2022/10/30 09:27:07;;;;;;;4.45;0.70;;;;;;;13.57;100.00;100609.69;4796032;29;20463;-78
2022/10/30 09:29:34;;;;;;;3.72;0.65;;;;;;;13.60;100.00;100604.28;4827052;29;20050;-78
2022/10/30 09:32:00;;;;;;;3.08;0.57;;;;;;;13.62;100.00;100604.81;4811994;29;20725;-78
2022/10/30 09:34:26;;;;;;;3.40;0.60;;;;;;;13.61;100.00;100624.66;4767134;29;20036;-78
2022/10/30 09:36:51;;;;;;;3.60;0.60;;;;;;;13.61;100.00;100633.84;4796888;29;20603;-77
2022/10/30 09:39:17;;;;;;;3.00;0.50;;;;;;;13.61;100.00;100628.25;4819294;29;20099;-78
2022/10/30 09:42:09;;;;;;;2.45;0.35;;;;;;;13.62;100.00;100629.06;4811802;29;20399;-77
2022/10/30 09:44:50;;;;;;;2.22;0.50;;;;;;;13.64;100.00;100649.94;4796490;29;20172;-78
2022/10/30 09:47:37;;;;;;;4.28;0.60;;;;;;;13.67;100.00;100642.09;4793133;29;20057;-77
2022/10/30 09:50:18;;;;;;;1.17;0.40;;;;;;;13.70;100.00;100635.91;4834948;29;20037;-77
2022/10/30 09:52:57;;;;;;;1.30;0.50;;;;;;;13.72;100.00;100644.78;4846036;29;20395;-77
2022/10/30 09:55:51;;;;;;;1.73;0.43;;;;;;;13.76;100.00;100641.06;4831874;29;20033;-77
2022/10/30 09:58:27;;;;;;;2.63;0.30;;;;;;;13.80;100.00;100641.28;4800005;29;20120;-78
2022/10/30 10:01:01;;;;;;;2.67;0.65;;;;;;;13.83;100.00;100635.88;4799489;29;20495;-78
2022/10/30 10:03:41;;;;;;;2.35;0.82;;;;;;;13.86;100.00;100646.41;4814360;29;20071;-78
2022/10/30 10:06:11;;;;;;;3.05;0.60;;;;;;;13.89;100.00;100641.34;4782626;29;20030;-78
2022/10/30 10:08:43;;;;;;;5.93;0.55;;;;;;;13.94;100.00;100647.66;4808348;29;20098;-78
2022/10/30 10:11:13;;;;;;;2.30;0.50;;;;;;;14.00;100.00;100651.16;4813280;29;20037;-77
2022/10/30 10:14:00;;;;;;;1.00;0.50;;;;;;;14.03;100.00;100656.94;4814739;29;20492;-78
2022/10/30 10:16:28;;;;;;;2.88;0.57;;;;;;;14.08;100.00;100664.38;4823058;29;20054;-78
2022/10/30 10:19:16;;;;;;;1.13;0.40;;;;;;;14.12;100.00;100653.38;4784273;29;20034;-78
2022/10/30 10:21:44;;;;;;;4.53;0.57;;;;;;;14.18;100.00;100660.50;4828420;29;20046;-78
2022/10/30 10:24:33;;;;;;;2.00;0.77;;;;;;;14.24;100.00;100659.28;4814315;29;20087;-78
2022/10/30 10:27:18;;;;;;;2.90;0.70;;;;;;;14.31;100.00;100665.22;4813875;29;20038;-78
2022/10/30 10:30:10;;;;;;;2.13;0.47;;;;;;;14.36;100.00;100659.53;4799037;29;20383;-78
2022/10/30 10:33:03;;;;;;;2.47;0.60;;;;;;;14.42;100.00;100649.88;4814051;29;20042;-78
2022/10/30 10:35:41;;;;;;;;;;;;;;;14.49;100.00;100657.84;4814088;29;20042;-78
2022/10/30 10:38:21;;;;;;;4.45;0.70;;;;;;;14.56;100.00;100661.03;4828801;29;20393;-78
2022/10/30 10:41:10;;;;;;;1.17;0.38;;;;;;;14.64;100.00;100662.25;4845333;29;20094;-78
2022/10/30 10:43:50;;;;;;;2.38;0.50;;;;;;;14.69;100.00;100665.72;4799775;29;20193;-78
2022/10/30 10:46:35;;;;;;;1.95;0.47;;;;;;;14.78;100.00;100668.59;4828938;29;20046;-78
2022/10/30 10:49:22;;;;;;;4.82;0.70;;;;;;;14.86;100.00;100670.63;4817743;29;20052;-78
2022/10/30 10:51:57;;;;;;;1.88;0.38;;;;;;;14.95;100.00;100679.06;4805251;29;20042;-78
2022/10/30 10:54:26;;;;;;;3.60;0.60;;;;;;;15.04;100.00;100679.09;4814140;29;20052;-78
2022/10/30 10:56:52;;;;;;;1.80;0.57;;;;;;;15.09;100.00;100679.78;4783660;29;20089;-78
2022/10/30 10:59:30;;;;;;;2.60;0.65;;;;;;;15.17;100.00;100684.63;4813274;29;20037;-78
2022/10/30 11:02:37;;;;;;;3.58;0.47;;;;;;;15.25;100.00;100685.81;4799810;29;20557;-78
2022/10/30 11:05:18;;;;;;;2.40;0.52;;;;;;;15.32;100.00;100685.34;4819876;29;20541;-78
2022/10/30 11:07:48;;;;;;;1.52;0.52;;;;;;;15.40;100.00;100687.34;4813719;29;20072;-78
2022/10/30 11:10:14;;;;;;;1.77;0.60;;;;;;;15.46;100.00;100676.84;4828594;29;20038;-78
2022/10/30 11:12:40;;;;;;;5.13;0.50;;;;;;;15.50;100.00;100675.88;4798341;29;20033;-78
2022/10/30 11:15:17;;;;;;;1.90;0.60;;;;;;;15.60;100.00;100677.56;4813450;29;20034;-78
2022/10/30 11:18:05;;;;;;;4.75;0.50;;;;;;;15.68;100.00;100675.94;4813595;29;20040;-78
2022/10/30 11:20:50;;;;;;;4.90;0.70;;;;;;;15.82;100.00;100687.88;4813376;29;20071;-78
2022/10/30 11:23:39;;;;;;;2.28;0.60;;;;;;;15.94;100.00;100692.88;4797299;29;20034;-78